createdAt,value
2023-01-31T00:00:05.813Z,3
2023-01-31T00:01:06.398Z,2.4
2023-01-31T00:02:06.145Z,2.4
2023-01-31T00:03:06.451Z,2.4
2023-01-31T00:04:05.995Z,3
2023-01-31T00:05:06.499Z,2.4
2023-01-31T00:06:05.905Z,2.4
2023-01-31T00:07:06.460Z,2.4
2023-01-31T00:08:05.809Z,3
2023-01-31T00:09:06.280Z,3
2023-01-31T00:10:05.931Z,2.4
2023-01-31T00:11:06.149Z,2.4
2023-01-31T00:12:05.589Z,2.4
2023-01-31T00:13:06.076Z,2.4
2023-01-31T00:14:06.041Z,2.4
2023-01-31T00:15:06.688Z,2.4
2023-01-31T00:16:06.692Z,2.4
2023-01-31T00:17:06.155Z,3
2023-01-31T00:18:06.516Z,2.4
2023-01-31T00:19:06.089Z,2.4
2023-01-31T00:20:05.593Z,2.4
2023-01-31T00:21:06.115Z,2.4
2023-01-31T00:22:05.504Z,2.4
2023-01-31T00:23:06.094Z,2.4
2023-01-31T00:24:06.623Z,2.4
2023-01-31T00:25:05.907Z,2.4
2023-01-31T00:26:05.722Z,2.4
2023-01-31T00:27:06.367Z,2.4
2023-01-31T00:28:05.985Z,2.4
2023-01-31T00:29:06.474Z,2.4
2023-01-31T00:30:06.175Z,2.4
2023-01-31T00:31:06.266Z,2.4
2023-01-31T00:32:07.030Z,2.4
2023-01-31T00:33:05.879Z,2.4
2023-01-31T00:34:06.545Z,2.4
2023-01-31T00:35:06.100Z,2.4
2023-01-31T00:36:06.709Z,2.4
2023-01-31T00:37:06.055Z,2.4
2023-01-31T00:38:06.530Z,2.4
2023-01-31T00:39:06.300Z,2.4
2023-01-31T00:40:06.658Z,2.4
2023-01-31T00:41:06.252Z,3
2023-01-31T00:42:05.626Z,2.4
2023-01-31T00:43:06.159Z,2.4
2023-01-31T00:44:05.831Z,2.4
2023-01-31T00:45:06.313Z,2.4
2023-01-31T00:46:05.559Z,3
2023-01-31T00:47:06.112Z,2.4
2023-01-31T00:48:06.565Z,3
2023-01-31T00:49:05.912Z,2.4
2023-01-31T00:50:06.468Z,3
2023-01-31T00:51:05.970Z,2.4
2023-01-31T00:52:06.503Z,2.4
2023-01-31T00:53:05.966Z,2.4
2023-01-31T00:54:06.557Z,3
2023-01-31T00:55:06.140Z,2.4
2023-01-31T00:56:05.611Z,2.4
2023-01-31T00:57:06.380Z,2.4
2023-01-31T00:58:05.953Z,2.4
2023-01-31T00:59:06.458Z,2.4
2023-01-31T01:00:05.902Z,2.4
2023-01-31T01:01:06.859Z,2.4
2023-01-31T01:02:06.351Z,2.4
2023-01-31T01:03:06.609Z,2.4
2023-01-31T01:04:06.186Z,2.4
2023-01-31T01:05:05.745Z,2.4
2023-01-31T01:06:06.592Z,3
2023-01-31T01:07:05.672Z,3
2023-01-31T01:08:06.416Z,2.4
2023-01-31T01:09:05.899Z,2.4
2023-01-31T01:10:06.430Z,2.4
2023-01-31T01:11:06.067Z,2.4
2023-01-31T01:12:06.634Z,2.4
2023-01-31T01:13:06.374Z,2.4
2023-01-31T01:14:05.907Z,2.4
2023-01-31T01:15:06.488Z,2.4
2023-01-31T01:16:06.436Z,2.4
2023-01-31T01:17:05.707Z,3
2023-01-31T01:18:06.352Z,2.4
2023-01-31T01:19:05.889Z,2.4
2023-01-31T01:20:06.511Z,3
2023-01-31T01:21:06.023Z,2.4
2023-01-31T01:22:06.608Z,3
2023-01-31T01:23:06.112Z,2.4
2023-01-31T01:24:05.534Z,2.4
2023-01-31T01:25:06.424Z,2.4
2023-01-31T01:26:05.939Z,2.4
2023-01-31T01:27:06.639Z,2.4
2023-01-31T01:28:06.207Z,2.4
2023-01-31T01:29:05.637Z,2.4
2023-01-31T01:30:06.234Z,2.4
2023-01-31T01:31:06.195Z,2.4
2023-01-31T01:32:06.227Z,2.4
2023-01-31T01:33:06.267Z,2.4
2023-01-31T01:34:05.858Z,2.4
2023-01-31T01:35:06.366Z,2.4
2023-01-31T01:36:05.895Z,2.4
2023-01-31T01:37:06.390Z,2.4
2023-01-31T01:38:05.750Z,2.4
2023-01-31T01:39:06.497Z,2.4
2023-01-31T01:40:06.084Z,3
2023-01-31T01:41:05.857Z,3
2023-01-31T01:42:06.295Z,2.4
2023-01-31T01:43:05.790Z,2.4
2023-01-31T01:44:06.251Z,2.4
2023-01-31T01:45:06.014Z,2.4
2023-01-31T01:46:06.453Z,2.4
2023-01-31T01:47:05.824Z,2.4
2023-01-31T01:48:06.194Z,2.4
2023-01-31T01:49:05.787Z,2.4
2023-01-31T01:50:06.214Z,2.4
2023-01-31T01:51:05.704Z,2.4
2023-01-31T01:52:06.485Z,2.4
2023-01-31T01:53:05.985Z,3
2023-01-31T01:54:06.284Z,3
2023-01-31T01:55:06.050Z,2.4
2023-01-31T01:56:06.554Z,2.4
2023-01-31T01:57:06.145Z,2.4
2023-01-31T01:58:06.613Z,2.4
2023-01-31T01:59:06.064Z,2.4
2023-01-31T02:00:06.568Z,2.4
2023-01-31T02:01:06.140Z,2.4
2023-01-31T02:02:06.485Z,2.4
2023-01-31T02:03:06.124Z,3
2023-01-31T02:04:06.381Z,2.4
2023-01-31T02:05:06.024Z,2.4
2023-01-31T02:06:06.558Z,2.4
2023-01-31T02:07:06.089Z,2.4
2023-01-31T02:08:05.769Z,2.4
2023-01-31T02:09:06.337Z,2.4
2023-01-31T02:10:05.876Z,2.4
2023-01-31T02:11:06.348Z,2.4
2023-01-31T02:12:05.929Z,2.4
2023-01-31T02:13:06.401Z,2.4
2023-01-31T02:14:05.925Z,2.4
2023-01-31T02:15:06.509Z,2.4
2023-01-31T02:16:06.210Z,2.4
2023-01-31T02:17:06.535Z,2.4
2023-01-31T02:18:06.305Z,3
2023-01-31T02:19:05.835Z,2.4
2023-01-31T02:20:06.195Z,2.4
2023-01-31T02:21:05.968Z,2.4
2023-01-31T02:22:06.443Z,2.4
2023-01-31T02:23:06.130Z,3
2023-01-31T02:24:05.763Z,2.4
2023-01-31T02:25:06.241Z,2.4
2023-01-31T02:26:06.714Z,2.4
2023-01-31T02:27:06.297Z,2.4
2023-01-31T02:28:05.798Z,3
2023-01-31T02:29:06.122Z,2.4
2023-01-31T02:30:05.916Z,2.4
2023-01-31T02:31:06.048Z,2.4
2023-01-31T02:32:06.511Z,2.4
2023-01-31T02:33:05.836Z,2.4
2023-01-31T02:34:06.402Z,2.4
2023-01-31T02:35:05.803Z,2.4
2023-01-31T02:36:06.533Z,2.4
2023-01-31T02:37:06.049Z,2.4
2023-01-31T02:38:06.768Z,3
2023-01-31T02:39:06.269Z,2.4
2023-01-31T02:40:05.934Z,3
2023-01-31T02:41:06.248Z,3
2023-01-31T02:42:06.390Z,3
2023-01-31T02:43:05.900Z,2.4
2023-01-31T02:44:06.528Z,2.4
2023-01-31T02:45:05.943Z,2.4
2023-01-31T02:46:06.756Z,2.4
2023-01-31T02:47:06.096Z,2.4
2023-01-31T02:48:05.712Z,2.4
2023-01-31T02:49:06.212Z,2.4
2023-01-31T02:50:05.837Z,2
2023-01-31T02:51:06.279Z,2.4
2023-01-31T02:52:05.788Z,2.4
2023-01-31T02:53:06.292Z,2.4
2023-01-31T02:54:05.799Z,2
2023-01-31T02:55:06.338Z,2.4
2023-01-31T02:56:05.831Z,2.4
2023-01-31T02:57:06.193Z,2.4
2023-01-31T02:58:05.940Z,2.4
2023-01-31T02:59:06.363Z,2.4
2023-01-31T03:00:06.022Z,2.4
2023-01-31T03:01:06.417Z,2.4
2023-01-31T03:02:06.690Z,2.4
2023-01-31T03:03:06.034Z,2.4
2023-01-31T03:04:06.472Z,2
2023-01-31T03:05:06.148Z,2.4
2023-01-31T03:06:05.777Z,2.4
2023-01-31T03:07:06.187Z,2.4
2023-01-31T03:08:05.769Z,2
2023-01-31T03:09:06.386Z,2.4
2023-01-31T03:10:05.901Z,2.4
2023-01-31T03:11:06.530Z,2.4
2023-01-31T03:12:06.130Z,2.4
2023-01-31T03:13:06.550Z,2.4
2023-01-31T03:14:05.961Z,2.3
2023-01-31T03:15:06.543Z,2
2023-01-31T03:16:05.846Z,2.3
2023-01-31T03:17:06.426Z,2.3
2023-01-31T03:18:05.840Z,2.3
2023-01-31T03:19:06.717Z,2.3
2023-01-31T03:20:06.127Z,2.3
2023-01-31T03:21:05.727Z,2.3
2023-01-31T03:22:06.381Z,2.3
2023-01-31T03:23:05.809Z,2.3
2023-01-31T03:24:06.511Z,2.3
2023-01-31T03:25:05.897Z,2
2023-01-31T03:26:06.618Z,2
2023-01-31T03:27:05.995Z,2
2023-01-31T03:28:06.708Z,2.3
2023-01-31T03:29:06.152Z,2
2023-01-31T03:30:06.720Z,2.3
2023-01-31T03:31:06.785Z,2.3
2023-01-31T03:32:06.016Z,2.3
2023-01-31T03:33:06.516Z,2.3
2023-01-31T03:34:06.007Z,2.3
2023-01-31T03:35:06.579Z,2.2
2023-01-31T03:36:06.062Z,2.2
2023-01-31T03:37:05.778Z,2.3
2023-01-31T03:38:06.159Z,2.3
2023-01-31T03:39:05.757Z,2.3
2023-01-31T03:40:06.407Z,2.3
2023-01-31T03:41:06.047Z,2.2
2023-01-31T03:42:06.457Z,2.2
2023-01-31T03:43:06.210Z,2.2
2023-01-31T03:44:06.569Z,2.2
2023-01-31T03:45:06.373Z,2.2
2023-01-31T03:46:06.714Z,2.2
2023-01-31T03:47:06.002Z,2.2
2023-01-31T03:48:05.713Z,2.2
2023-01-31T03:49:06.223Z,2
2023-01-31T03:50:06.639Z,2.2
2023-01-31T03:51:06.098Z,2
2023-01-31T03:52:05.564Z,2.2
2023-01-31T03:53:06.248Z,2.2
2023-01-31T03:54:05.740Z,2.2
2023-01-31T03:55:06.638Z,2.2
2023-01-31T03:56:06.125Z,2.2
2023-01-31T03:57:05.631Z,2
2023-01-31T03:58:06.476Z,2.2
2023-01-31T03:59:05.984Z,2.2
2023-01-31T04:00:06.379Z,2.2
2023-01-31T04:01:06.106Z,2
2023-01-31T04:02:05.754Z,2
2023-01-31T04:03:06.448Z,2.2
2023-01-31T04:04:05.823Z,2.2
2023-01-31T04:05:06.117Z,2.2
2023-01-31T04:06:05.651Z,2.2
2023-01-31T04:07:06.190Z,2.2
2023-01-31T04:08:05.770Z,2.2
2023-01-31T04:09:06.179Z,2.2
2023-01-31T04:10:05.880Z,2.2
2023-01-31T04:11:06.262Z,2.2
2023-01-31T04:12:05.835Z,2.2
2023-01-31T04:13:06.644Z,2
2023-01-31T04:14:06.017Z,2
2023-01-31T04:15:06.733Z,2.1
2023-01-31T04:16:06.177Z,2.1
2023-01-31T04:17:06.314Z,2.1
2023-01-31T04:18:05.831Z,2
2023-01-31T04:19:06.440Z,2.1
2023-01-31T04:20:06.131Z,2.1
2023-01-31T04:21:06.559Z,2.1
2023-01-31T04:22:06.260Z,2.1
2023-01-31T04:23:05.527Z,2.1
2023-01-31T04:24:06.278Z,2.1
2023-01-31T04:25:05.828Z,2.1
2023-01-31T04:26:06.221Z,2
2023-01-31T04:27:05.768Z,2.1
2023-01-31T04:28:06.445Z,2.1
2023-01-31T04:29:05.834Z,2.1
2023-01-31T04:30:06.443Z,2.1
2023-01-31T04:31:06.926Z,2.1
2023-01-31T04:32:06.461Z,2.1
2023-01-31T04:33:05.761Z,2.2
2023-01-31T04:34:06.250Z,2.1
2023-01-31T04:35:06.825Z,2.1
2023-01-31T04:36:06.202Z,2.1
2023-01-31T04:37:05.864Z,2.1
2023-01-31T04:38:06.323Z,2
2023-01-31T04:39:05.818Z,2.2
2023-01-31T04:40:06.424Z,2
2023-01-31T04:41:05.903Z,2.1
2023-01-31T04:42:06.384Z,2.1
2023-01-31T04:43:05.896Z,2.1
2023-01-31T04:44:05.656Z,2.1
2023-01-31T04:45:06.182Z,2.1
2023-01-31T04:46:05.864Z,2
2023-01-31T04:47:06.574Z,2.1
2023-01-31T04:48:06.089Z,2
2023-01-31T04:49:06.465Z,2
2023-01-31T04:50:05.980Z,2
2023-01-31T04:51:06.573Z,2.1
2023-01-31T04:52:06.036Z,2.1
2023-01-31T04:53:07.130Z,2.1
2023-01-31T04:54:06.015Z,2.1
2023-01-31T04:55:05.549Z,2.1
2023-01-31T04:56:06.703Z,2.1
2023-01-31T04:57:05.741Z,2.1
2023-01-31T04:58:08.812Z,2.1
2023-01-31T04:59:06.300Z,2
2023-01-31T05:00:06.294Z,2
2023-01-31T05:01:06.508Z,2
2023-01-31T05:02:06.199Z,2
2023-01-31T05:03:06.168Z,2
2023-01-31T05:04:06.203Z,2
2023-01-31T05:05:05.784Z,2
2023-01-31T05:06:06.818Z,2
2023-01-31T05:07:05.811Z,2
2023-01-31T05:08:06.563Z,2
2023-01-31T05:09:06.516Z,2
2023-01-31T05:10:06.431Z,2
2023-01-31T05:11:08.658Z,2
2023-01-31T05:12:07.414Z,2
2023-01-31T05:13:06.177Z,2
2023-01-31T05:14:05.806Z,2
2023-01-31T05:15:07.049Z,2
2023-01-31T05:16:06.909Z,2
2023-01-31T05:17:05.804Z,2
2023-01-31T05:18:06.860Z,2
2023-01-31T05:19:06.656Z,2
2023-01-31T05:20:06.527Z,2
2023-01-31T05:21:06.315Z,2
2023-01-31T05:22:06.417Z,2
2023-01-31T05:23:06.120Z,2
2023-01-31T05:24:06.953Z,2
2023-01-31T05:25:06.819Z,2
2023-01-31T05:26:05.648Z,2
2023-01-31T05:27:07.038Z,2
2023-01-31T05:28:06.829Z,2
2023-01-31T05:29:06.760Z,2
2023-01-31T05:30:06.537Z,2
2023-01-31T05:31:06.777Z,2
2023-01-31T05:32:07.761Z,2
2023-01-31T05:33:06.392Z,2
2023-01-31T05:34:06.851Z,2
2023-01-31T05:35:06.029Z,2
2023-01-31T05:36:06.709Z,2
2023-01-31T05:37:07.120Z,2
2023-01-31T05:38:06.840Z,2
2023-01-31T05:39:06.241Z,2
2023-01-31T05:40:06.638Z,2
2023-01-31T05:41:06.539Z,2
2023-01-31T05:42:06.546Z,1.9
2023-01-31T05:43:06.663Z,1.9
2023-01-31T05:44:06.302Z,1.9
2023-01-31T05:45:06.960Z,2
2023-01-31T05:46:06.869Z,2
2023-01-31T05:47:06.700Z,2
2023-01-31T05:48:06.685Z,2
2023-01-31T05:49:06.249Z,2
2023-01-31T05:50:05.683Z,2
2023-01-31T05:51:06.528Z,2
2023-01-31T05:52:06.407Z,2
2023-01-31T05:53:06.364Z,1.9
2023-01-31T05:54:05.815Z,2
2023-01-31T05:55:06.223Z,1.9
2023-01-31T05:56:05.968Z,2
2023-01-31T05:57:06.905Z,2
2023-01-31T05:58:05.793Z,2
2023-01-31T05:59:06.797Z,2
2023-01-31T06:00:06.599Z,2
2023-01-31T06:01:06.547Z,2
2023-01-31T06:02:06.625Z,2
2023-01-31T06:03:07.368Z,1.9
2023-01-31T06:04:06.257Z,1.9
2023-01-31T06:05:06.468Z,1.9
2023-01-31T06:06:05.931Z,1.9
2023-01-31T06:07:06.360Z,1.9
2023-01-31T06:08:06.737Z,1.9
2023-01-31T06:09:06.663Z,1.9
2023-01-31T06:10:06.579Z,1.9
2023-01-31T06:11:05.680Z,1.9
2023-01-31T06:12:06.067Z,2
2023-01-31T06:13:05.562Z,2
2023-01-31T06:14:06.415Z,2
2023-01-31T06:15:05.847Z,2
2023-01-31T06:16:05.641Z,1.9
2023-01-31T06:17:06.342Z,1.9
2023-01-31T06:18:06.001Z,2
2023-01-31T06:19:06.508Z,1.9
2023-01-31T06:20:05.972Z,1.9
2023-01-31T06:21:06.425Z,1.9
2023-01-31T06:22:06.153Z,2
2023-01-31T06:23:05.607Z,1.9
2023-01-31T06:24:06.261Z,1.9
2023-01-31T06:25:05.835Z,1.9
2023-01-31T06:26:06.251Z,1.9
2023-01-31T06:27:06.603Z,1.8
2023-01-31T06:28:05.986Z,1.8
2023-01-31T06:29:06.414Z,1.8
2023-01-31T06:30:06.273Z,1.9
2023-01-31T06:31:06.646Z,1.9
2023-01-31T06:32:06.006Z,1.9
2023-01-31T06:33:06.401Z,1.9
2023-01-31T06:34:06.069Z,1.9
2023-01-31T06:35:06.706Z,2
2023-01-31T06:36:06.126Z,2
2023-01-31T06:37:05.712Z,1.9
2023-01-31T06:38:06.182Z,1.9
2023-01-31T06:39:05.750Z,1.9
2023-01-31T06:40:06.287Z,1.9
2023-01-31T06:41:05.776Z,1.9
2023-01-31T06:42:06.379Z,1.9
2023-01-31T06:43:05.700Z,1.9
2023-01-31T06:44:06.335Z,1.9
2023-01-31T06:45:05.832Z,1.9
2023-01-31T06:46:06.764Z,1.9
2023-01-31T06:47:06.048Z,1.9
2023-01-31T06:48:06.528Z,1.9
2023-01-31T06:49:06.179Z,1.9
2023-01-31T06:50:05.700Z,1.9
2023-01-31T06:51:06.311Z,1.9
2023-01-31T06:52:05.991Z,1.9
2023-01-31T06:53:06.449Z,1.9
2023-01-31T06:54:05.977Z,1.9
2023-01-31T06:55:06.169Z,1.9
2023-01-31T06:56:06.003Z,1.9
2023-01-31T06:57:06.529Z,2
2023-01-31T06:58:06.203Z,1.9
2023-01-31T06:59:05.854Z,1.9
2023-01-31T07:00:06.368Z,1.9
2023-01-31T07:01:06.530Z,1.9
2023-01-31T07:02:05.957Z,2
2023-01-31T07:03:06.475Z,1.9
2023-01-31T07:04:06.068Z,1.9
2023-01-31T07:05:06.579Z,2
2023-01-31T07:06:05.965Z,2
2023-01-31T07:07:06.487Z,2
2023-01-31T07:08:05.957Z,1.9
2023-01-31T07:09:06.604Z,2
2023-01-31T07:10:06.082Z,2
2023-01-31T07:11:06.558Z,1.9
2023-01-31T07:12:06.161Z,2
2023-01-31T07:13:06.421Z,2
2023-01-31T07:14:06.062Z,2
2023-01-31T07:15:06.499Z,2
2023-01-31T07:16:06.061Z,2
2023-01-31T07:17:06.564Z,2
2023-01-31T07:18:06.015Z,2
2023-01-31T07:19:06.713Z,2
2023-01-31T07:20:06.224Z,2
2023-01-31T07:21:06.595Z,2
2023-01-31T07:22:06.328Z,2
2023-01-31T07:23:05.830Z,2
2023-01-31T07:24:06.489Z,2
2023-01-31T07:25:05.960Z,2
2023-01-31T07:26:06.648Z,2
2023-01-31T07:27:06.174Z,2
2023-01-31T07:28:06.571Z,2
2023-01-31T07:29:06.323Z,2
2023-01-31T07:30:05.897Z,2
2023-01-31T07:31:06.456Z,2
2023-01-31T07:32:05.849Z,2
2023-01-31T07:33:06.203Z,2
2023-01-31T07:34:06.669Z,2
2023-01-31T07:35:06.265Z,2
2023-01-31T07:36:05.741Z,2
2023-01-31T07:37:06.428Z,2
2023-01-31T07:38:05.862Z,2
2023-01-31T07:39:06.274Z,2
2023-01-31T07:40:05.720Z,2.1
2023-01-31T07:41:06.372Z,2
2023-01-31T07:42:05.852Z,2
2023-01-31T07:43:06.210Z,2
2023-01-31T07:44:05.770Z,2
2023-01-31T07:45:24.944Z,2.1
2023-01-31T07:46:06.785Z,2.1
2023-01-31T07:47:05.970Z,2
2023-01-31T07:48:06.324Z,2
2023-01-31T07:49:06.017Z,2
2023-01-31T07:50:05.593Z,2
2023-01-31T07:51:06.334Z,2
2023-01-31T07:52:06.935Z,2
2023-01-31T07:53:06.346Z,2.1
2023-01-31T07:54:05.724Z,2.1
2023-01-31T07:55:06.312Z,2.1
2023-01-31T07:56:05.848Z,2
2023-01-31T07:57:06.355Z,2.1
2023-01-31T07:58:05.902Z,2.1
2023-01-31T07:59:06.298Z,2.1
2023-01-31T08:00:05.868Z,2
2023-01-31T08:01:05.805Z,2.1
2023-01-31T08:02:06.377Z,2.1
2023-01-31T08:03:05.578Z,2.2
2023-01-31T08:04:24.947Z,2.2
2023-01-31T08:05:06.236Z,2.2
2023-01-31T08:06:06.736Z,2.2
2023-01-31T08:07:06.068Z,2.1
2023-01-31T08:08:05.723Z,2.2
2023-01-31T08:09:06.019Z,2.2
2023-01-31T08:10:05.818Z,2.2
2023-01-31T08:11:06.336Z,2.2
2023-01-31T08:12:05.729Z,2.3
2023-01-31T08:13:06.126Z,2.3
2023-01-31T08:14:05.886Z,2.3
2023-01-31T08:15:06.522Z,2.3
2023-01-31T08:16:05.920Z,2.4
2023-01-31T08:17:06.421Z,2.3
2023-01-31T08:18:08.635Z,2.4
2023-01-31T08:19:06.178Z,2.3
2023-01-31T08:20:05.783Z,2.4
2023-01-31T08:21:06.201Z,2.4
2023-01-31T08:22:05.813Z,2.4
2023-01-31T08:23:06.543Z,2.4
2023-01-31T08:24:06.468Z,2.4
2023-01-31T08:25:05.858Z,2.4
2023-01-31T08:26:06.485Z,2.4
2023-01-31T08:27:05.942Z,2.4
2023-01-31T08:28:06.349Z,2.4
2023-01-31T08:29:05.864Z,2.4
2023-01-31T08:30:05.911Z,2.5
2023-01-31T08:31:13.716Z,2.5
2023-01-31T08:32:06.745Z,2.6
2023-01-31T08:33:05.870Z,2.6
2023-01-31T08:34:06.513Z,2.6
2023-01-31T08:35:05.847Z,2.6
2023-01-31T08:36:06.385Z,2.6
2023-01-31T08:37:06.121Z,2.7
2023-01-31T08:38:19.952Z,2.7
2023-01-31T08:39:06.038Z,2.7
2023-01-31T08:40:06.233Z,2.8
2023-01-31T08:41:06.046Z,2.8
2023-01-31T08:42:06.465Z,2.8
2023-01-31T08:43:05.916Z,2.8
2023-01-31T08:44:08.735Z,2.8
2023-01-31T08:45:06.027Z,2.8
2023-01-31T08:46:05.868Z,2.8
2023-01-31T08:47:06.574Z,2.8
2023-01-31T08:48:05.817Z,2
2023-01-31T08:49:06.170Z,2.8
2023-01-31T08:50:06.551Z,2.8
2023-01-31T08:51:05.799Z,2.8
2023-01-31T08:52:06.357Z,2.8
2023-01-31T08:53:05.862Z,2.8
2023-01-31T08:54:06.211Z,2.8
2023-01-31T08:55:05.772Z,2.8
2023-01-31T08:56:08.968Z,2.8
2023-01-31T08:57:05.851Z,2.8
2023-01-31T08:58:06.420Z,2.8
2023-01-31T08:59:05.923Z,2.8
2023-01-31T09:00:06.651Z,2.8
2023-01-31T09:01:06.093Z,2.8
2023-01-31T09:02:06.835Z,2.9
2023-01-31T09:03:06.255Z,2.8
2023-01-31T09:04:06.658Z,3
2023-01-31T09:05:06.150Z,2.9
2023-01-31T09:06:05.962Z,2.9
2023-01-31T09:07:06.576Z,3
2023-01-31T09:08:05.982Z,3
2023-01-31T09:09:06.633Z,3
2023-01-31T09:10:06.481Z,3
2023-01-31T09:11:05.781Z,3
2023-01-31T09:12:06.620Z,3
2023-01-31T09:13:06.037Z,3
2023-01-31T09:14:06.465Z,2.9
2023-01-31T09:15:06.185Z,2.9
2023-01-31T09:16:07.996Z,3
2023-01-31T09:17:06.172Z,2.9
2023-01-31T09:18:06.556Z,2.9
2023-01-31T09:19:06.170Z,3
2023-01-31T09:20:06.654Z,2.9
2023-01-31T09:21:06.257Z,3
2023-01-31T09:22:05.711Z,3
2023-01-31T09:23:06.279Z,3.1
2023-01-31T09:24:05.919Z,3.1
2023-01-31T09:25:06.273Z,3.2
2023-01-31T09:26:05.958Z,3.2
2023-01-31T09:27:06.375Z,3.2
2023-01-31T09:28:05.873Z,3.2
2023-01-31T09:29:06.457Z,3.3
2023-01-31T09:30:05.924Z,3.3
2023-01-31T09:31:06.363Z,3.4
2023-01-31T09:32:06.691Z,3.4
2023-01-31T09:33:06.100Z,3.4
2023-01-31T09:34:06.610Z,3.4
2023-01-31T09:35:06.295Z,3.4
2023-01-31T09:36:05.734Z,3.4
2023-01-31T09:37:06.269Z,3.5
2023-01-31T09:38:05.826Z,3.5
2023-01-31T09:39:06.244Z,3.5
2023-01-31T09:40:05.920Z,3.5
2023-01-31T09:41:06.461Z,3
2023-01-31T09:42:05.962Z,3.5
2023-01-31T09:43:06.310Z,3.6
2023-01-31T09:44:05.929Z,3.5
2023-01-31T09:45:06.618Z,3.5
2023-01-31T09:46:05.955Z,3.6
2023-01-31T09:47:06.533Z,3.6
2023-01-31T09:48:05.957Z,3.6
2023-01-31T09:49:06.526Z,3.6
2023-01-31T09:50:06.239Z,3.6
2023-01-31T09:51:06.794Z,3.6
2023-01-31T09:52:06.190Z,3.7
2023-01-31T09:53:05.599Z,3.7
2023-01-31T09:54:06.306Z,3.7
2023-01-31T09:55:05.779Z,3.8
2023-01-31T09:56:06.492Z,3.8
2023-01-31T09:57:05.868Z,3.9
2023-01-31T09:58:06.365Z,3.9
2023-01-31T09:59:05.910Z,3.9
2023-01-31T10:00:06.337Z,3.9
2023-01-31T10:01:06.681Z,3.9
2023-01-31T10:02:05.832Z,3.9
2023-01-31T10:03:06.434Z,3.9
2023-01-31T10:04:06.164Z,3.9
2023-01-31T10:05:06.448Z,4
2023-01-31T10:06:06.033Z,3
2023-01-31T10:07:06.469Z,4
2023-01-31T10:08:06.019Z,3
2023-01-31T10:09:06.443Z,4
2023-01-31T10:10:06.395Z,4
2023-01-31T10:11:06.111Z,4
2023-01-31T10:12:06.446Z,4
2023-01-31T10:13:06.337Z,4.1
2023-01-31T10:14:05.639Z,4.1
2023-01-31T10:15:06.426Z,4.1
2023-01-31T10:16:06.475Z,4.1
2023-01-31T10:17:06.681Z,4.2
2023-01-31T10:18:05.831Z,4.2
2023-01-31T10:19:06.322Z,4.2
2023-01-31T10:20:05.938Z,4
2023-01-31T10:21:09.307Z,4.2
2023-01-31T10:22:05.888Z,4.2
2023-01-31T10:23:06.427Z,4.2
2023-01-31T10:24:06.029Z,4.2
2023-01-31T10:25:06.459Z,4.2
2023-01-31T10:26:06.039Z,4.2
2023-01-31T10:27:06.538Z,4.2
2023-01-31T10:28:06.050Z,4.2
2023-01-31T10:29:05.744Z,4.2
2023-01-31T10:30:06.304Z,4.2
2023-01-31T10:31:06.237Z,4.2
2023-01-31T10:32:06.816Z,4.2
2023-01-31T10:33:06.130Z,4.2
2023-01-31T10:34:06.690Z,4.1
2023-01-31T10:35:06.177Z,4.1
2023-01-31T10:36:05.662Z,4
2023-01-31T10:37:06.162Z,4
2023-01-31T10:38:05.860Z,4
2023-01-31T10:39:06.423Z,4.1
2023-01-31T10:40:05.953Z,3
2023-01-31T10:41:06.266Z,3
2023-01-31T10:42:05.795Z,3
2023-01-31T10:43:06.362Z,4
2023-01-31T10:44:05.822Z,4
2023-01-31T10:45:06.343Z,4
2023-01-31T10:46:06.118Z,4
2023-01-31T10:47:06.654Z,4
2023-01-31T10:48:05.973Z,4
2023-01-31T10:49:06.613Z,4
2023-01-31T10:50:05.995Z,4
2023-01-31T10:51:06.575Z,4
2023-01-31T10:52:06.071Z,4
2023-01-31T10:53:05.783Z,4
2023-01-31T10:54:06.147Z,4
2023-01-31T10:55:05.788Z,4
2023-01-31T10:56:06.486Z,4.1
2023-01-31T10:57:05.949Z,4.1
2023-01-31T10:58:08.235Z,4.1
2023-01-31T10:59:05.988Z,4.1
2023-01-31T11:00:06.589Z,4.1
2023-01-31T11:01:06.562Z,4.2
2023-01-31T11:02:06.115Z,4.2
2023-01-31T11:03:07.199Z,4.1
2023-01-31T11:04:06.001Z,4.2
2023-01-31T11:05:05.771Z,4.1
2023-01-31T11:06:06.131Z,4.1
2023-01-31T11:07:05.921Z,3
2023-01-31T11:08:06.405Z,4
2023-01-31T11:09:05.768Z,4
2023-01-31T11:10:06.333Z,4
2023-01-31T11:11:06.085Z,4
2023-01-31T11:12:06.670Z,4
2023-01-31T11:13:06.098Z,4.1
2023-01-31T11:14:06.644Z,4
2023-01-31T11:15:06.058Z,4
2023-01-31T11:16:06.529Z,4
2023-01-31T11:17:06.405Z,4
2023-01-31T11:18:06.421Z,4
2023-01-31T11:19:06.167Z,3.9
2023-01-31T11:20:05.760Z,4
2023-01-31T11:21:06.407Z,3.9
2023-01-31T11:22:05.874Z,3.9
2023-01-31T11:23:06.292Z,3.9
2023-01-31T11:24:06.007Z,3
2023-01-31T11:25:06.679Z,3.9
2023-01-31T11:26:05.895Z,3.9
2023-01-31T11:27:06.522Z,3
2023-01-31T11:28:06.057Z,3.9
2023-01-31T11:29:06.609Z,4
2023-01-31T11:30:06.651Z,3.9
2023-01-31T11:31:06.572Z,4
2023-01-31T11:32:05.952Z,4
2023-01-31T11:33:06.197Z,4
2023-01-31T11:34:05.800Z,4
2023-01-31T11:35:06.438Z,4.1
2023-01-31T11:36:05.792Z,4.1
2023-01-31T11:37:06.411Z,4.2
2023-01-31T11:38:05.772Z,4.2
2023-01-31T11:39:06.511Z,4.2
2023-01-31T11:40:06.057Z,4.3
2023-01-31T11:41:06.517Z,4.3
2023-01-31T11:42:06.495Z,4.3
2023-01-31T11:43:05.900Z,4.3
2023-01-31T11:44:06.437Z,4.3
2023-01-31T11:45:05.888Z,4.4
2023-01-31T11:46:06.339Z,4.4
2023-01-31T11:47:06.397Z,4.4
2023-01-31T11:48:06.177Z,4.4
2023-01-31T11:49:06.419Z,4.4
2023-01-31T11:50:06.135Z,4.4
2023-01-31T11:51:05.926Z,4.4
2023-01-31T11:52:06.314Z,4.5
2023-01-31T11:53:06.058Z,4.5
2023-01-31T11:54:06.526Z,4.5
2023-01-31T11:55:06.192Z,4.5
2023-01-31T11:56:05.695Z,4.4
2023-01-31T11:57:06.293Z,4.4
2023-01-31T11:58:05.699Z,4
2023-01-31T11:59:06.417Z,4
2023-01-31T12:00:05.992Z,4.4
2023-01-31T12:01:06.702Z,4.4
2023-01-31T12:02:06.506Z,4
2023-01-31T12:03:09.437Z,4.4
2023-01-31T12:04:08.735Z,4.4
2023-01-31T12:05:06.617Z,4.4
2023-01-31T12:06:06.087Z,4.3
2023-01-31T12:07:05.795Z,4.3
2023-01-31T12:08:06.510Z,4.3
2023-01-31T12:09:05.953Z,4.3
2023-01-31T12:10:06.425Z,4.3
2023-01-31T12:11:05.865Z,4.3
2023-01-31T12:12:08.680Z,4.3
2023-01-31T12:13:21.970Z,4.3
2023-01-31T12:14:06.391Z,4
2023-01-31T12:15:05.922Z,4.4
2023-01-31T12:16:05.833Z,4.3
2023-01-31T12:17:06.447Z,4.4
2023-01-31T12:18:05.902Z,4.4
2023-01-31T12:19:06.310Z,4.4
2023-01-31T12:20:28.717Z,4.4
2023-01-31T12:21:06.171Z,4.4
2023-01-31T12:22:05.810Z,4.4
2023-01-31T12:23:06.410Z,4.4
2023-01-31T12:24:05.753Z,4
2023-01-31T12:25:06.228Z,4.4
2023-01-31T12:26:06.682Z,4.4
2023-01-31T12:27:05.927Z,4.5
2023-01-31T12:28:06.570Z,4.5
2023-01-31T12:29:06.250Z,4.5
2023-01-31T12:30:05.897Z,4.5
2023-01-31T12:31:06.165Z,4.5
2023-01-31T12:32:06.205Z,4.5
2023-01-31T12:33:05.466Z,4.5
2023-01-31T12:34:06.437Z,4
2023-01-31T12:35:12.307Z,4.6
2023-01-31T12:36:06.534Z,4.6
2023-01-31T12:37:05.996Z,4.6
2023-01-31T12:38:06.500Z,4.6
2023-01-31T12:39:05.905Z,4.6
2023-01-31T12:40:28.287Z,4.6
2023-01-31T12:41:06.738Z,4.7
2023-01-31T12:42:06.235Z,4.7
2023-01-31T12:43:05.763Z,4.7
2023-01-31T12:44:06.193Z,4.8
2023-01-31T12:45:05.972Z,4.8
2023-01-31T12:46:08.747Z,4.8
2023-01-31T12:47:15.081Z,4.8
2023-01-31T12:48:05.839Z,4.9
2023-01-31T12:49:06.442Z,4.9
2023-01-31T12:50:05.955Z,5
2023-01-31T12:51:05.881Z,5
2023-01-31T12:52:06.219Z,5
2023-01-31T12:53:05.863Z,5
2023-01-31T12:54:06.216Z,5
2023-01-31T12:55:05.960Z,5
2023-01-31T12:56:06.245Z,5
2023-01-31T12:57:05.773Z,5
2023-01-31T12:58:08.843Z,4.9
2023-01-31T12:59:19.664Z,5
2023-01-31T13:00:06.497Z,4.9
2023-01-31T13:01:06.312Z,4.9
2023-01-31T13:02:06.655Z,4
2023-01-31T13:03:06.350Z,4.9
2023-01-31T13:04:06.589Z,4.8
2023-01-31T13:05:06.443Z,4.8
2023-01-31T13:06:05.778Z,4.8
2023-01-31T13:07:06.301Z,4.8
2023-01-31T13:08:05.880Z,4.8
2023-01-31T13:09:12.392Z,4.8
2023-01-31T13:10:05.815Z,4.9
2023-01-31T13:11:06.421Z,4.9
2023-01-31T13:12:06.302Z,4.9
2023-01-31T13:13:06.429Z,4
2023-01-31T13:14:05.996Z,4
2023-01-31T13:15:06.716Z,5
2023-01-31T13:16:05.808Z,4.9
2023-01-31T13:17:06.288Z,4.9
2023-01-31T13:18:05.802Z,4.9
2023-01-31T13:19:06.138Z,4.9
2023-01-31T13:20:05.925Z,4.9
2023-01-31T13:21:06.322Z,4.8
2023-01-31T13:22:05.917Z,4.9
2023-01-31T13:23:06.381Z,4.9
2023-01-31T13:24:05.886Z,4.8
2023-01-31T13:25:06.391Z,4
2023-01-31T13:26:06.048Z,4.8
2023-01-31T13:27:06.461Z,4
2023-01-31T13:28:05.939Z,4.8
2023-01-31T13:29:06.582Z,4.8
2023-01-31T13:30:06.189Z,4.8
2023-01-31T13:31:07.092Z,4.8
2023-01-31T13:32:06.260Z,4.8
2023-01-31T13:33:05.899Z,4.8
2023-01-31T13:34:06.499Z,4.8
2023-01-31T13:35:05.973Z,4.8
2023-01-31T13:36:06.370Z,4.7
2023-01-31T13:37:05.905Z,4.7
2023-01-31T13:38:06.496Z,4.7
2023-01-31T13:39:05.801Z,4.6
2023-01-31T13:40:06.687Z,4.6
2023-01-31T13:41:06.129Z,4.6
2023-01-31T13:42:06.741Z,4.6
2023-01-31T13:43:06.024Z,4.6
2023-01-31T13:44:06.509Z,4.6
2023-01-31T13:45:06.228Z,4.6
2023-01-31T13:46:06.177Z,4.6
2023-01-31T13:47:06.516Z,4.5
2023-01-31T13:48:06.008Z,4.5
2023-01-31T13:49:05.672Z,4.5
2023-01-31T13:50:06.295Z,4.5
2023-01-31T13:51:05.740Z,4.5
2023-01-31T13:52:06.301Z,4.5
2023-01-31T13:53:05.754Z,4.5
2023-01-31T13:54:06.162Z,4.4
2023-01-31T13:55:05.785Z,4.5
2023-01-31T13:56:06.461Z,4.4
2023-01-31T13:57:05.898Z,4.4
2023-01-31T13:58:06.398Z,4.5
2023-01-31T13:59:06.075Z,4.4
2023-01-31T14:00:06.704Z,4.5
2023-01-31T14:01:06.467Z,4.5
2023-01-31T14:02:06.260Z,4.4
2023-01-31T14:03:06.844Z,4.4